createdAt,value
2023-04-28T00:00:19.237Z,70.07
2023-04-28T00:03:22.536Z,70.62
2023-04-28T00:06:25.708Z,70.48
2023-04-28T00:09:28.769Z,70.76
2023-04-28T00:12:31.667Z,70.03
2023-04-28T00:15:34.553Z,70.26
2023-04-28T00:18:37.421Z,70.02
2023-04-28T00:21:40.497Z,69.98
2023-04-28T00:24:43.263Z,70.37
2023-04-28T00:27:45.989Z,70.39
2023-04-28T00:30:48.795Z,70.64
2023-04-28T00:33:51.690Z,70.84
2023-04-28T00:36:54.395Z,70.93
2023-04-28T00:39:57.433Z,71.08
2023-04-28T00:43:00.447Z,71.62
2023-04-28T00:46:03.408Z,71.29
2023-04-28T00:49:06.607Z,71.75
2023-04-28T00:52:10.746Z,71.86
2023-04-28T00:55:15.849Z,71.69
2023-04-28T00:58:19.691Z,71.90
2023-04-28T01:01:22.657Z,71.53
2023-04-28T01:04:27.273Z,71.36
2023-04-28T01:07:30.145Z,71.85
2023-04-28T01:10:33.216Z,71.53
2023-04-28T01:13:43.207Z,71.82
2023-04-28T01:16:46.035Z,71.53
2023-04-28T01:19:49.076Z,71.31
2023-04-28T01:22:51.778Z,71.39
2023-04-28T01:25:55.122Z,71.01
2023-04-28T01:28:58.194Z,71.83
2023-04-28T01:32:01.116Z,72.36
2023-04-28T01:35:04.021Z,71.98
2023-04-28T01:38:06.841Z,71.87
2023-04-28T01:41:09.622Z,71.74
2023-04-28T01:44:13.466Z,71.62
2023-04-28T01:47:16.564Z,71.44
2023-04-28T01:50:19.419Z,71.38
2023-04-28T01:53:22.390Z,71.45
2023-04-28T01:56:25.602Z,71.72
2023-04-28T01:59:30.804Z,72.43
2023-04-28T02:02:33.757Z,73.40
2023-04-28T02:05:38.517Z,73.24
2023-04-28T02:08:41.489Z,73.36
2023-04-28T02:11:44.397Z,73.11
2023-04-28T02:14:47.729Z,73.19
2023-04-28T02:17:50.846Z,72.70
2023-04-28T02:20:53.945Z,72.27
2023-04-28T02:23:56.820Z,71.95
2023-04-28T02:26:59.713Z,71.93
2023-04-28T02:30:07.602Z,72.14
2023-04-28T02:33:10.702Z,71.62
2023-04-28T02:36:13.670Z,71.83
2023-04-28T02:39:16.492Z,72.77
2023-04-28T02:42:19.500Z,72.94
2023-04-28T02:45:22.261Z,73.11
2023-04-28T02:48:26.068Z,72.82
2023-04-28T02:51:29.476Z,72.84
2023-04-28T02:54:34.380Z,72.69
2023-04-28T02:57:37.543Z,72.14
2023-04-28T03:00:40.764Z,72.73
2023-04-28T03:03:43.809Z,73.14
2023-04-28T03:06:47.045Z,72.34
2023-04-28T03:09:50.038Z,72.70
2023-04-28T03:12:53.008Z,73.54
2023-04-28T03:15:56.348Z,73.56
2023-04-28T03:18:59.571Z,72.89
2023-04-28T03:22:02.370Z,72.78
2023-04-28T03:25:07.778Z,72.67
2023-04-28T03:28:17.441Z,72.61
2023-04-28T03:31:20.987Z,72.84
2023-04-28T03:34:24.268Z,72.69
2023-04-28T03:37:27.423Z,72.43
2023-04-28T03:40:30.341Z,72.52
2023-04-28T03:43:48.353Z,72.35
2023-04-28T03:47:09.404Z,72.03
2023-04-28T03:50:13.253Z,71.82
2023-04-28T03:53:16.545Z,71.51
2023-04-28T03:56:19.322Z,71.65
2023-04-28T04:03:32.314Z,70.95
2023-04-28T04:06:35.378Z,70.40
2023-04-28T04:09:38.356Z,71.19
2023-04-28T04:12:41.867Z,70.47
2023-04-28T04:15:44.840Z,70.71
2023-04-28T04:18:47.658Z,71.09
2023-04-28T04:21:59.500Z,70.61
2023-04-28T04:25:02.743Z,69.91
2023-04-28T04:28:05.532Z,69.79
2023-04-28T04:31:08.693Z,69.56
2023-04-28T04:34:12.360Z,68.96
2023-04-28T04:37:15.211Z,68.57
2023-04-28T04:40:34.461Z,68.21
2023-04-28T04:43:37.246Z,67.25
2023-04-28T04:46:40.183Z,67.02
2023-04-28T04:49:43.270Z,67.27
2023-04-28T04:52:46.114Z,66.66
2023-04-28T04:55:48.923Z,67.71
2023-04-28T04:58:52.766Z,68.04
2023-04-28T05:02:21.358Z,67.36
2023-04-28T05:05:25.212Z,66.69
2023-04-28T05:08:41.562Z,66.86
2023-04-28T05:11:46.120Z,67.14
2023-04-28T05:14:48.939Z,66.92
2023-04-28T05:17:52.728Z,67.12
2023-04-28T05:20:55.591Z,66.60
2023-04-28T05:23:58.595Z,66.37
2023-04-28T05:27:01.863Z,64.98
2023-04-28T05:30:06.832Z,64.40
2023-04-28T05:33:09.697Z,64.23
2023-04-28T05:36:13.681Z,63.65
2023-04-28T05:39:16.459Z,62.97
2023-04-28T05:42:19.524Z,62.62
2023-04-28T05:45:22.347Z,64.38
2023-04-28T05:48:25.217Z,64.31
2023-04-28T05:51:28.089Z,66.01
2023-04-28T05:54:31.200Z,64.84
2023-04-28T05:57:45.372Z,64.70
2023-04-28T06:00:55.323Z,61.54
2023-04-28T06:03:59.050Z,59.94
2023-04-28T06:07:02.227Z,57.52
2023-04-28T06:10:06.033Z,53.96
2023-04-28T06:13:09.382Z,51.98
2023-04-28T06:16:12.323Z,50.11
2023-04-28T06:19:18.803Z,49.36
2023-04-28T06:22:22.798Z,48.63
2023-04-28T06:25:25.770Z,49.63
2023-04-28T06:28:28.909Z,49.78
2023-04-28T06:31:31.761Z,49.23
2023-04-28T06:34:35.609Z,48.91
2023-04-28T06:37:38.458Z,48.43
2023-04-28T06:40:41.247Z,49.31
2023-04-28T06:43:44.585Z,47.93
2023-04-28T06:46:51.986Z,48.81
2023-04-28T06:49:55.738Z,47.96
2023-04-28T06:52:59.671Z,49.29
2023-04-28T06:56:08.732Z,48.32
2023-04-28T06:59:15.570Z,48.36
2023-04-28T07:02:18.636Z,47.79
2023-04-28T07:05:21.701Z,47.36
2023-04-28T07:08:24.729Z,46.71
2023-04-28T07:11:27.547Z,47.49
2023-04-28T07:14:30.667Z,48.45
2023-04-28T07:17:33.612Z,48.27
2023-04-28T07:20:36.454Z,47.35
2023-04-28T07:23:40.474Z,47.37
2023-04-28T07:26:43.393Z,47.38
2023-04-28T07:29:46.386Z,49.14
2023-04-28T07:32:50.295Z,48.09
2023-04-28T07:35:53.651Z,47.04
2023-04-28T07:38:57.069Z,46.56
2023-04-28T07:42:00.146Z,44.97
2023-04-28T07:45:03.947Z,43.49
2023-04-28T07:48:09.042Z,43.18
2023-04-28T07:51:12.240Z,43.63
2023-04-28T07:54:15.603Z,44.78
2023-04-28T07:57:18.712Z,44.20
2023-04-28T08:00:21.572Z,45.17
2023-04-28T08:03:24.700Z,46.55
2023-04-28T08:06:27.826Z,46.36
2023-04-28T08:09:31.293Z,45.17
2023-04-28T08:12:34.185Z,45.70
2023-04-28T08:15:37.545Z,45.50
2023-04-28T08:18:41.539Z,45.75
2023-04-28T08:21:44.374Z,46.05
2023-04-28T08:24:47.914Z,45.21
2023-04-28T08:27:50.669Z,44.17
2023-04-28T08:30:55.693Z,43.21
2023-04-28T08:33:58.553Z,44.02
2023-04-28T08:37:02.009Z,43.19
2023-04-28T08:40:10.193Z,43.49
2023-04-28T08:43:14.127Z,42.47
2023-04-28T08:46:21.580Z,41.58
2023-04-28T08:49:35.315Z,41.61
2023-04-28T08:52:40.594Z,40.80
2023-04-28T08:55:50.242Z,38.51
2023-04-28T08:58:55.060Z,36.59
2023-04-28T09:01:58.823Z,36.76
2023-04-28T09:05:02.476Z,37.31
2023-04-28T09:08:06.376Z,36.82
2023-04-28T09:11:10.911Z,35.62
2023-04-28T09:14:13.968Z,36.03
2023-04-28T09:17:17.229Z,34.75
2023-04-28T09:20:30.580Z,34.57
2023-04-28T09:23:34.775Z,34.65
2023-04-28T09:26:51.736Z,33.53
2023-04-28T09:29:55.599Z,34.02
2023-04-28T09:33:11.276Z,33.63
2023-04-28T09:36:27.197Z,34.37
2023-04-28T09:39:31.800Z,33.33
2023-04-28T09:42:36.567Z,33.55
2023-04-28T09:45:42.695Z,32.84
2023-04-28T09:48:47.319Z,32.56
2023-04-28T09:51:50.586Z,31.78
2023-04-28T09:54:55.377Z,32.69
2023-04-28T09:58:05.693Z,33.02
2023-04-28T10:01:13.896Z,31.56
2023-04-28T10:04:17.828Z,32.72
2023-04-28T10:07:21.974Z,31.88
2023-04-28T10:10:25.719Z,31.42
2023-04-28T10:13:32.585Z,30.78
2023-04-28T10:16:35.850Z,32.03
2023-04-28T10:19:47.343Z,30.94
2023-04-28T10:23:31.987Z,31.81
2023-04-28T10:27:08.542Z,31.16
2023-04-28T10:30:28.092Z,31.52
2023-04-28T10:33:32.440Z,31.27
2023-04-28T10:36:55.885Z,32.27
2023-04-28T10:40:40.392Z,31.17
2023-04-28T10:43:43.144Z,30.95
2023-04-28T10:47:10.778Z,30.08
2023-04-28T10:50:13.668Z,30.76
2023-04-28T10:53:16.510Z,30.57
2023-04-28T10:56:27.083Z,30.79
2023-04-28T10:59:30.381Z,29.95
2023-04-28T11:02:40.400Z,30.56
2023-04-28T11:06:20.541Z,30.68
2023-04-28T11:09:32.066Z,30.73
2023-04-28T11:12:35.046Z,30.04
2023-04-28T11:15:39.213Z,30.52
2023-04-28T11:18:55.728Z,30.74
2023-04-28T11:22:01.188Z,31.03
2023-04-28T11:25:04.237Z,31.21
2023-04-28T11:28:08.740Z,30.21
2023-04-28T11:31:24.186Z,29.42
2023-04-28T11:34:27.852Z,30.45
2023-04-28T11:37:30.659Z,30.09
2023-04-28T11:40:33.854Z,30.78
2023-04-28T11:43:46.545Z,31.19
2023-04-28T11:46:56.019Z,29.76
2023-04-28T11:49:59.521Z,31.27
2023-04-28T11:53:02.264Z,31.04
2023-04-28T11:56:13.418Z,29.82
2023-04-28T11:59:16.408Z,30.29
2023-04-28T12:02:31.594Z,30.54
2023-04-28T12:05:38.913Z,30.91
2023-04-28T12:08:41.961Z,30.92
2023-04-28T12:11:58.717Z,30.68
2023-04-28T12:15:05.810Z,30.88
2023-04-28T12:18:12.080Z,30.23
2023-04-28T12:21:21.931Z,30.35
2023-04-28T12:24:26.938Z,29.39
2023-04-28T12:27:29.795Z,29.19
2023-04-28T12:30:35.007Z,30.16
2023-04-28T12:33:38.549Z,29.67
2023-04-28T12:36:41.495Z,29.65
2023-04-28T12:39:44.562Z,29.65
2023-04-28T12:42:47.984Z,29.59
2023-04-28T12:45:53.561Z,29.22
2023-04-28T12:48:57.219Z,29.52
2023-04-28T12:52:00.046Z,30.23
2023-04-28T12:55:03.931Z,29.44
2023-04-28T12:58:06.997Z,29.95
2023-04-28T13:01:09.867Z,30.74
2023-04-28T13:04:13.060Z,29.74
2023-04-28T13:07:16.449Z,29.98
2023-04-28T13:10:21.443Z,30.35
2023-04-28T13:13:27.470Z,30.66
2023-04-28T13:16:30.627Z,30.08
2023-04-28T13:19:34.673Z,29.90
2023-04-28T13:22:37.513Z,28.92
2023-04-28T13:25:40.392Z,29.55
2023-04-28T13:28:43.476Z,30.29
2023-04-28T13:31:46.320Z,30.31
2023-04-28T13:34:49.265Z,31.13
2023-04-28T13:37:56.138Z,31.61
2023-04-28T13:40:58.830Z,30.52
2023-04-28T13:44:01.826Z,29.78
2023-04-28T13:47:06.623Z,29.94
2023-04-28T13:50:09.477Z,29.98
2023-04-28T13:53:12.444Z,29.93
2023-04-28T13:56:15.441Z,29.80
2023-04-28T13:59:19.448Z,30.49
2023-04-28T14:02:22.577Z,29.57
2023-04-28T14:05:26.090Z,29.25
2023-04-28T14:08:29.591Z,30.14
2023-04-28T14:11:32.281Z,29.50
2023-04-28T14:14:36.033Z,29.59
2023-04-28T14:17:39.769Z,30.87
2023-04-28T14:20:42.634Z,29.41
2023-04-28T14:23:45.493Z,30.37
2023-04-28T14:26:49.621Z,30.70
2023-04-28T14:29:52.486Z,30.36
2023-04-28T14:32:55.317Z,30.48
2023-04-28T14:35:58.113Z,29.95
2023-04-28T14:39:01.256Z,30.06
2023-04-28T14:42:04.132Z,30.30
2023-04-28T14:45:09.216Z,30.80
2023-04-28T14:48:13.457Z,31.07
2023-04-28T14:51:16.278Z,30.71
2023-04-28T14:54:19.194Z,31.20
2023-04-28T14:57:21.991Z,31.04
2023-04-28T15:00:25.052Z,31.46
2023-04-28T15:03:28.009Z,31.55
2023-04-28T15:06:32.236Z,32.55
2023-04-28T15:09:35.882Z,32.57
2023-04-28T15:12:38.627Z,32.61
2023-04-28T15:15:41.481Z,32.67
2023-04-28T15:18:44.684Z,33.20
2023-04-28T15:21:47.496Z,32.63
2023-04-28T15:24:51.626Z,33.58
2023-04-28T15:27:54.586Z,33.86
2023-04-28T15:30:57.415Z,33.59
2023-04-28T15:34:00.189Z,33.87
2023-04-28T15:37:25.694Z,33.47
2023-04-28T15:40:28.819Z,34.26
2023-04-28T15:43:31.621Z,34.85
2023-04-28T15:46:36.168Z,35.04
2023-04-28T15:49:39.988Z,35.25
2023-04-28T15:52:46.874Z,35.04
2023-04-28T15:55:49.638Z,35.25
2023-04-28T15:58:52.561Z,35.30
2023-04-28T16:01:56.358Z,35.70
2023-04-28T16:05:05.418Z,35.81
2023-04-28T16:08:08.280Z,35.71
2023-04-28T16:11:17.786Z,35.71
2023-04-28T16:14:20.637Z,36.58
2023-04-28T16:17:23.407Z,36.80
2023-04-28T16:20:26.123Z,36.82
2023-04-28T16:23:28.865Z,37.20
2023-04-28T16:26:31.887Z,36.95
2023-04-28T16:29:35.088Z,37.70
2023-04-28T16:32:38.661Z,38.26
2023-04-28T16:35:41.624Z,38.61
2023-04-28T16:38:46.640Z,38.19
2023-04-28T16:41:49.606Z,38.50
2023-04-28T16:44:53.006Z,38.89
2023-04-28T16:47:56.343Z,39.78
2023-04-28T16:50:59.118Z,39.12
2023-04-28T16:54:02.629Z,39.71
2023-04-28T16:57:06.517Z,39.87
2023-04-28T17:00:10.130Z,41.23
2023-04-28T17:03:13.086Z,40.94
2023-04-28T17:06:15.933Z,41.66
2023-04-28T17:09:20.582Z,41.80
2023-04-28T17:12:23.570Z,41.78
2023-04-28T17:15:27.299Z,42.07
2023-04-28T17:18:31.280Z,42.21
2023-04-28T17:21:34.126Z,42.68
2023-04-28T17:24:36.904Z,43.01
2023-04-28T17:27:39.771Z,42.76
2023-04-28T17:30:46.879Z,42.54
2023-04-28T17:33:51.906Z,43.31
2023-04-28T17:36:54.681Z,43.73
2023-04-28T17:39:57.761Z,44.07
2023-04-28T17:43:00.707Z,43.46
2023-04-28T17:46:04.146Z,43.45
2023-04-28T17:49:07.119Z,43.07
2023-04-28T17:52:09.872Z,42.94
2023-04-28T17:55:12.780Z,43.52
2023-04-28T17:58:16.037Z,43.78
2023-04-28T18:01:18.905Z,44.65
2023-04-28T18:04:22.504Z,45.40
2023-04-28T18:07:26.040Z,46.78
2023-04-28T18:10:30.552Z,46.06
2023-04-28T18:13:33.761Z,44.91
2023-04-28T18:16:36.982Z,44.97
2023-04-28T18:19:39.985Z,45.90
2023-04-28T18:22:43.257Z,45.80
2023-04-28T18:25:46.166Z,45.49
2023-04-28T18:28:49.363Z,45.59
2023-04-28T18:31:52.513Z,45.99
2023-04-28T18:34:55.732Z,46.11
2023-04-28T18:38:00.699Z,46.52
2023-04-28T18:41:13.782Z,47.08
2023-04-28T18:44:17.412Z,46.85
2023-04-28T18:47:20.140Z,47.11
2023-04-28T18:50:23.888Z,47.49
2023-04-28T18:53:26.660Z,48.10
2023-04-28T18:56:29.500Z,48.24
2023-04-28T18:59:32.710Z,49.04
2023-04-28T19:02:36.477Z,49.23
2023-04-28T19:05:43.284Z,49.09
2023-04-28T19:08:46.363Z,50.00
2023-04-28T19:11:49.787Z,49.86
2023-04-28T19:14:53.553Z,50.50
2023-04-28T19:17:56.673Z,50.85
2023-04-28T19:21:04.763Z,51.54
2023-04-28T19:24:07.574Z,51.35
2023-04-28T19:27:10.548Z,51.50
2023-04-28T19:30:15.106Z,51.30
2023-04-28T19:33:18.323Z,51.47
2023-04-28T19:36:22.455Z,52.18
2023-04-28T19:39:28.049Z,52.70
2023-04-28T19:42:34.211Z,52.18
2023-04-28T19:45:38.301Z,52.53
2023-04-28T19:48:41.644Z,52.97
2023-04-28T19:51:44.505Z,53.48
2023-04-28T19:54:50.593Z,53.67
2023-04-28T19:57:55.932Z,53.63
2023-04-28T20:00:59.353Z,54.37
2023-04-28T20:04:02.463Z,55.08
2023-04-28T20:07:06.456Z,54.90
2023-04-28T20:10:09.633Z,54.58
2023-04-28T20:13:12.732Z,55.82
2023-04-28T20:16:15.659Z,54.93
2023-04-28T20:19:20.780Z,55.26
2023-04-28T20:22:26.540Z,55.62
2023-04-28T20:25:30.084Z,54.97
2023-04-28T20:28:32.882Z,54.91
2023-04-28T20:31:36.090Z,54.42
2023-04-28T20:34:39.576Z,54.65
2023-04-28T20:37:42.654Z,54.36
2023-04-28T20:40:45.457Z,53.77
2023-04-28T20:43:48.391Z,54.46
2023-04-28T20:46:51.680Z,54.42
2023-04-28T20:49:54.678Z,54.75
2023-04-28T20:52:57.509Z,54.46
2023-04-28T20:56:00.368Z,54.13
2023-04-28T20:59:03.332Z,54.40
2023-04-28T21:02:06.966Z,55.14
2023-04-28T21:05:10.250Z,56.32
2023-04-28T21:08:13.474Z,56.63
2023-04-28T21:11:17.956Z,56.46
2023-04-28T21:14:22.023Z,56.93
2023-04-28T21:17:24.820Z,56.94
2023-04-28T21:20:28.815Z,56.78
2023-04-28T21:23:32.244Z,55.95
2023-04-28T21:26:36.029Z,54.70
2023-04-28T21:29:39.234Z,54.35
2023-04-28T21:32:42.424Z,55.79
2023-04-28T21:35:45.711Z,56.44
2023-04-28T21:38:49.252Z,56.41
2023-04-28T21:41:52.022Z,55.54
2023-04-28T21:44:54.816Z,54.84
2023-04-28T21:48:00.262Z,53.39
2023-04-28T21:51:03.191Z,52.75
2023-04-28T21:54:06.112Z,52.33
2023-04-28T21:57:09.001Z,52.54
2023-04-28T22:00:12.796Z,52.60
2023-04-28T22:03:19.016Z,52.22
2023-04-28T22:06:22.187Z,52.21
2023-04-28T22:09:26.383Z,53.00
2023-04-28T22:12:29.396Z,53.36
2023-04-28T22:15:32.725Z,53.46
2023-04-28T22:18:36.027Z,55.30
2023-04-28T22:21:38.943Z,55.84
2023-04-28T22:24:41.662Z,58.80
2023-04-28T22:27:44.458Z,59.63
2023-04-28T22:30:47.688Z,60.89
2023-04-28T22:33:50.512Z,60.54
2023-04-28T22:36:53.259Z,60.66
2023-04-28T22:39:56.117Z,60.29
2023-04-28T22:42:58.889Z,60.08
2023-04-28T22:46:02.596Z,60.44
2023-04-28T22:49:05.442Z,60.25
2023-04-28T22:52:08.157Z,60.21
2023-04-28T22:55:11.978Z,61.88
2023-04-28T22:58:14.712Z,62.55
2023-04-28T23:01:17.541Z,62.07
2023-04-28T23:04:20.953Z,61.44
2023-04-28T23:07:23.886Z,61.17
2023-04-28T23:10:26.992Z,60.98
2023-04-28T23:13:29.691Z,61.00
2023-04-28T23:16:32.546Z,60.30
2023-04-28T23:19:39.375Z,60.39
2023-04-28T23:22:42.700Z,60.13
2023-04-28T23:25:45.871Z,60.57
2023-04-28T23:28:48.800Z,63.01
2023-04-28T23:31:55.115Z,63.87
2023-04-28T23:34:57.920Z,65.18
2023-04-28T23:38:00.781Z,64.66
2023-04-28T23:41:06.518Z,64.19
2023-04-28T23:44:09.451Z,63.17
2023-04-28T23:47:12.270Z,62.26
2023-04-28T23:50:15.184Z,62.21
2023-04-28T23:53:18.005Z,61.61
2023-04-28T23:56:20.893Z,62.12
2023-04-28T23:59:23.728Z,62.88
